Have a Safe July 4th! 

Flight Track Log - Related Links

Times and Time Zones

All times are in EDT time to prevent confusion due to time zone crossing. See the QFA1100 flight status page for this flight to view local times or setup timezone preferences in your user account.

Time Position Orientation Groundspeed Altitude Reporting Facility
EDT Latitude Longitude Course Direction KTS MPH feet Rate Location/Type
Tue 01:44:43 AM -31.9310 115.9600 19° North 2 2  Level FlightAware ADS-B
Tue 01:47:25 AM -31.9310 115.9610 90° East 5 6 130 Level FlightAware ADS-B
Tue 01:48:18 AM -31.9320 115.9630 121° Southeast 9 10 184 Level FlightAware ADS-B
Tue 01:48:28 AM -31.9330 115.9630 180° South 10 12 212 Level FlightAware ADS-B
Tue 01:48:50 AM -31.9340 115.9630 180° South 9 10 219 Level FlightAware ADS-B
Tue 01:49:27 AM -31.9350 115.9640 140° Southeast 11 13 235 Level FlightAware ADS-B
Tue 01:49:57 AM -31.9370 115.9640 180° South 22 25 267 Level FlightAware ADS-B
Tue 01:50:27 AM -31.9410 115.9630 192° South 26 30 300 Level FlightAware ADS-B
Tue 01:50:40 AM -31.9420 115.9620 220° Southwest 26 30 343 Level FlightAware ADS-B
Tue 01:51:12 AM -31.9450 115.9610 196° South 25 29 365 Level FlightAware ADS-B
Tue 01:51:45 AM -31.9490 115.9600 192° South 23 26 436 Level FlightAware ADS-B
Tue 01:51:58 AM -31.9500 115.9600 180° South 10 12 545 Level FlightAware ADS-B
Tue 01:52:27 AM -31.9510 115.9620 121° Southeast 11 13 605 Level FlightAware ADS-B
Tue 01:53:12 AM -31.9470 115.9630 12° North 74 85 800 Level FlightAware ADS-B
Tue 01:53:32 AM -31.9360 115.9660 13° North 160 184 1,600 Level FlightAware ADS-B
Tue 01:53:57 AM -31.9180 115.9720 16° North 154 177 1,200 2,291 Climbing FlightAware ADS-B
Tue 01:54:27 AM -31.8950 115.9780 12° North 187 215 2,100 2,200 Climbing FlightAware ADS-B
Tue 01:54:57 AM -31.8700 115.9930 27° Northeast 224 258 3,400 2,400 Climbing FlightAware ADS-B
Tue 01:55:07 AM -31.8650 116.0050 64° Northeast 239 275 3,700 2,160 Climbing FlightAware ADS-B
Tue 01:55:22 AM -31.8630 116.0250 83° East 261 300 4,300 1,800 Climbing FlightAware ADS-B
Tue 01:55:37 AM -31.8620 116.0470 87° East 288 331 4,600 1,600 Climbing FlightAware ADS-B
Tue 01:56:07 AM -31.8590 116.0970 86° East 325 374 5,500 2,400 Climbing FlightAware ADS-B
Tue 01:56:32 AM -31.8530 116.1440 81° East 335 386 6,800 3,150 Climbing FlightAware ADS-B
Tue 01:56:47 AM -31.8480 116.1710 78° East 342 394 7,600 3,150 Climbing FlightAware ADS-B
Tue 01:57:12 AM -31.8390 116.2170 77° East 355 409 8,900 3,086 Climbing FlightAware ADS-B
Tue 01:57:57 AM -31.8220 116.3020 77° East 365 420 11,200 3,000 Climbing FlightAware ADS-B
Tue 01:58:32 AM -31.8080 116.3710 77° East 375 432 12,900 2,880 Climbing FlightAware ADS-B
Tue 01:59:12 AM -31.7920 116.4510 77° East 382 440 14,800 2,753 Climbing FlightAware ADS-B
Tue 01:59:57 AM -31.7750 116.5430 78° East 389 448 16,800 2,148 Climbing FlightAware ADS-B
Tue 02:00:33 AM -31.7650 116.5880 75° East 391 450 17,700 2,348 Climbing FlightAware ADS-B
Tue 02:00:43 AM -31.7400 116.6310 56° Northeast 386 444 18,600 2,571 Climbing FlightAware ADS-B
Tue 02:01:01 AM -31.7130 116.6510 32° Northeast 388 447 18,900 1,552 Climbing FlightAware ADS-B
Tue 02:01:41 AM -31.6467 116.6840 32° Northeast 401 461 20,100 1,773 Climbing Aus ATC (RADAR)
Tue 02:01:45 AM -31.6380 116.6890 32° Northeast 406 467 20,200 1,950 Climbing FlightAware ADS-B
Tue 02:02:21 AM -31.5768 116.7194 32° Northeast 409 471 21,400 1,857 Climbing Aus ATC (RADAR)
Tue 02:02:27 AM -31.5640 116.7260 32° Northeast 419 482 21,500 1,867 Climbing FlightAware ADS-B
Tue 02:03:06 AM -31.4955 116.7605 32° Northeast 421 484 22,800 1,953 Climbing Aus ATC (RADAR)
Tue 02:03:10 AM -31.4860 116.7650 32° Northeast 426 490 22,900 1,902 Climbing FlightAware ADS-B
Tue 02:03:47 AM -31.4180 116.7990 23° Northeast 429 494 24,100 1,929 Climbing FlightAware ADS-B
Tue 02:04:34 AM -31.3320 116.8420 23° Northeast 434 499 25,600 1,674 Climbing FlightAware ADS-B
Tue 02:05:13 AM -31.2740 116.8710 23° Northeast 436 502 26,500 1,786 Climbing FlightAware ADS-B
Tue 02:05:58 AM -31.1750 116.9200 23° Northeast 439 505 28,100 2,560 Climbing FlightAware ADS-B
Tue 02:06:28 AM -31.1210 116.9470 23° Northeast 422 486 29,700 2,189 Climbing FlightAware ADS-B
Tue 02:07:12 AM -31.0430 116.9860 23° Northeast 424 488 30,800 1,213 Climbing FlightAware ADS-B
Tue 02:07:57 AM -30.9590 117.0270 23° Northeast 438 504 31,500 1,765 Climbing FlightAware ADS-B
Tue 02:08:37 AM -30.8870 117.0630 23° Northeast 417 480 33,300 1,350 Climbing FlightAware ADS-B
Tue 02:09:17 AM -30.8120 117.1000 23° Northeast 440 506 33,300 234 Level FlightAware ADS-B
Tue 02:09:54 AM -30.7507 117.1297 23° Northeast 445 512 33,600 800 Climbing Aus ATC (RADAR)
Tue 02:10:02 AM -30.7270 117.1420 23° Northeast 442 509 33,900 1,174 Climbing FlightAware ADS-B
Tue 02:10:40 AM -30.6644 117.1725 23° Northeast 451 519 34,500 900 Climbing Aus ATC (RADAR)
Tue 02:10:42 AM -30.6500 117.1800 23° Northeast 454 522 34,500 400 Level FlightAware ADS-B
Tue 02:11:25 AM -30.6258 117.1919 23° Northeast 454 522 34,800 960 Climbing Aus ATC (RADAR)
Tue 02:11:32 AM -30.5590 117.2250 23° Northeast 456 525 35,300 923 Climbing FlightAware ADS-B
Tue 02:12:04 AM -30.5574 117.2245 23° Northeast 455 524 35,400 1,200 Climbing Aus ATC (RADAR)
Tue 02:12:12 AM -30.4770 117.2650 23° Northeast 454 522 36,100 1,176 Climbing FlightAware ADS-B
Tue 02:12:55 AM -30.4609 117.2727 23° Northeast 452 520 36,400 800 Climbing Aus ATC (RADAR)
Tue 02:12:57 AM -30.3930 117.3060 23° Northeast 457 526 36,700 632 Climbing FlightAware ADS-B
Tue 02:13:33 AM -30.3925 117.3057 23° Northeast 455 524 36,800 450 Climbing Aus ATC (RADAR)
Tue 02:13:37 AM -30.3140 117.3450 23° Northeast 453 521 37,000 245 Climbing FlightAware ADS-B
Tue 02:14:22 AM -30.2220 117.3890 22° Northeast 455 524 37,000 61 Level FlightAware ADS-B
Tue 02:15:15 AM -30.1961 117.4013 22° Northeast 464 534 37,100  Climbing Aus ATC (RADAR)
Tue 02:15:37 AM -30.0750 117.4610 22° Northeast 458 527 37,000 -77 Descending FlightAware ADS-B
Tue 02:16:33 AM -29.9660 117.5140 23° Northeast 457 526 37,000  Level FlightAware ADS-B
Tue 02:17:20 AM -29.8760 117.5570 23° Northeast 456 525 37,000  Level FlightAware ADS-B
Tue 02:17:59 AM -29.7950 117.5960 23° Northeast 457 526 37,000  Level FlightAware ADS-B
Tue 02:18:43 AM -29.7060 117.6390 23° Northeast 456 525 37,000  Level FlightAware ADS-B
Tue 02:19:23 AM -29.6270 117.6770 23° Northeast 457 526 37,000  Level FlightAware ADS-B
Tue 02:19:58 AM -29.5590 117.7100 23° Northeast 456 525 37,000  Level FlightAware ADS-B
Tue 02:20:40 AM -29.4780 117.7490 23° Northeast 456 525 37,000  Level FlightAware ADS-B
Tue 02:21:21 AM -29.3950 117.7890 23° Northeast 455 524 37,000  Level FlightAware ADS-B
Tue 02:21:57 AM -29.3220 117.8230 22° Northeast 454 522 37,000  Level FlightAware ADS-B
Tue 02:22:41 AM -29.2450 117.8600 23° Northeast 453 521 37,000 77 Level FlightAware ADS-B
Tue 02:23:15 AM -29.2459 117.8572 23° Northeast 460 529 37,100  Climbing Aus ATC (RADAR)
Tue 02:23:20 AM -29.1690 117.8960 23° Northeast 452 520 37,000 -136 Descending FlightAware ADS-B
Tue 02:23:59 AM -29.0810 117.9380 23° Northeast 452 520 37,000 83 Level FlightAware ADS-B
Tue 02:24:32 AM -29.0784 117.9358 23° Northeast 459 528 37,100  Climbing Aus ATC (RADAR)
Tue 02:24:42 AM -29.0050 117.9740 23° Northeast 453 521 37,000  Descending FlightAware ADS-B
Tue 02:25:36 AM -28.9413 118.0022 23° Northeast 460 529 37,100  Climbing Aus ATC (RADAR)
Tue 02:25:40 AM -28.8860 118.0310 23° Northeast 456 525 37,000 -125 Descending FlightAware ADS-B
Tue 02:26:24 AM -28.8110 118.0650 22° Northeast 455 524 37,000  Level FlightAware ADS-B
Tue 02:27:00 AM -28.7510 118.0930 22° Northeast 455 524 37,000  Level FlightAware ADS-B
Tue 02:27:36 AM -28.6920 118.1200 22° Northeast 455 524 37,000 81 Level FlightAware ADS-B
Tue 02:28:14 AM -28.5927 118.1659 22° Northeast 467 537 37,100  Climbing Aus ATC (RADAR)
Tue 02:28:25 AM -28.6100 118.1580 22° Northeast 455 524 37,000 -128 Descending FlightAware ADS-B
Tue 02:29:01 AM -28.5510 118.1850 22° Northeast 455 524 37,000  Level FlightAware ADS-B
Tue 02:29:35 AM -28.4940 118.2110 22° Northeast 455 524 37,000 308 Level FlightAware ADS-B
Tue 02:29:40 AM -28.4005 118.2539 22° Northeast 469 540 37,200 188 Climbing Aus ATC (RADAR)
Tue 02:30:39 AM -28.2797 118.3096 22° Northeast 471 542 37,200 -103 Level Aus ATC (RADAR)
Tue 02:31:36 AM -28.2930 118.3030 22° Northeast 455 524 37,000 -130 Descending FlightAware ADS-B
Tue 02:32:11 AM -28.2350 118.3300 22° Northeast 455 524 37,000  Level FlightAware ADS-B
Tue 02:32:58 AM -28.1570 118.3660 22° Northeast 455 524 37,000  Level FlightAware ADS-B
Tue 02:33:12 AM -27.9952 118.4366 200° South 37,000  Level Aus ATC (Calculated)
Tue 02:33:36 AM -28.0940 118.3950 22° Northeast 455 524 37,000  Level FlightAware ADS-B
Tue 02:34:25 AM -28.0130 118.4320 22° Northeast 455 524 37,000  Level FlightAware ADS-B
Tue 02:34:53 AM -27.7640 118.5393 201° Southwest 37,000  Level Aus ATC (Calculated)
Tue 02:35:01 AM -27.9530 118.4590 22° Northeast 455 524 37,000 Level FlightAware ADS-B
Tue 02:37:00 AM -27.5292 118.6431 21° North  Level FlightAware Approximate
Tue 02:38:00 AM -27.4183 118.6920 21° North  Level FlightAware Approximate
Tue 02:38:06 AM -27.3880 118.7053 21° North 37,000  Level Aus ATC (Calculated)
Tue 02:40:00 AM -27.1772 118.7978 21° North  Level FlightAware Approximate
Tue 02:41:00 AM -27.0662 118.8464 21° North  Level FlightAware Approximate
Tue 02:42:00 AM -26.9553 118.8949 21° North  Level FlightAware Approximate
Tue 02:42:55 AM -26.7609 118.9795 21° North 37,000  Level Aus ATC (Calculated)
Tue 02:43:00 AM -26.8442 118.9432 21° North  Level FlightAware Approximate
Tue 02:44:00 AM -26.6319 118.9795 North  Level FlightAware Approximate
Tue 02:45:00 AM -26.7510 118.9795 180° South  Level FlightAware Approximate
Tue 02:46:00 AM -26.7203 118.9967 21° North  Level FlightAware Approximate
Tue 02:46:58 AM -26.2542 119.1960 21° North 491 565 37,100  Level Aus ATC (RADAR)
Tue 02:47:00 AM -26.6090 119.0440 21° North  Level FlightAware Approximate
Tue 02:48:02 AM -26.1178 119.2511 20° North 485 558 37,100  Level Aus ATC (RADAR)
Tue 02:48:37 AM -26.0437 119.2816 20° North 487 560 37,100  Level Aus ATC (RADAR)
Tue 02:49:22 AM -25.9479 119.3222 21° North 487 560 37,100  Level Aus ATC (RADAR)
Tue 02:50:22 AM -25.8165 119.3819 22° Northeast 503 579 37,100  Level Aus ATC (RADAR)
Tue 02:51:07 AM -25.7210 119.4203 20° North 494 568 37,100  Level Aus ATC (RADAR)
Tue 02:51:57 AM -25.6149 119.4627 20° North 488 562 37,100  Level Aus ATC (RADAR)
Tue 02:52:42 AM -25.5196 119.5007 20° North 488 562 37,100  Level Aus ATC (RADAR)
Tue 02:53:22 AM -25.4323 119.5386 21° North 496 571 37,100  Level Aus ATC (RADAR)
Tue 02:54:07 AM -25.3336 119.5801 21° North 501 577 37,100  Level Aus ATC (RADAR)
Tue 02:55:07 AM -25.2042 119.6331 20° North 498 573 37,100 -55 Level Aus ATC (RADAR)
Tue 02:55:57 AM -25.0972 119.6762 20° North 493 567 37,000 -1,371 Descending Aus ATC (RADAR)
Tue 02:56:52 AM -24.9786 119.7259 21° North 495 570 34,700 -2,541 Descending Aus ATC (RADAR)
Tue 02:57:22 AM -24.9135 119.7476 17° North 493 567 33,400 -2,700 Descending Aus ATC (RADAR)
Tue 02:58:12 AM -24.8069 119.7556 North 473 544 31,100 -3,158 Descending Aus ATC (RADAR)
Tue 02:58:57 AM -24.7173 119.7545 359° North 437 503 28,400 -3,643 Descending Aus ATC (RADAR)
Tue 02:59:36 AM -24.6325 119.7573 North 445 512 26,000 -3,273 Descending Aus ATC (RADAR)
Tue 03:00:25 AM -24.5363 119.7634 North 450 518 23,600 -3,143 Descending Aus ATC (RADAR)
Tue 03:01:21 AM -24.4157 119.7673 North 430 495 20,500 -2,934 Descending Aus ATC (RADAR)
Tue 03:02:42 AM -24.2514 119.7771 North 509 586 16,900 -2,625 Descending Aus ATC (RADAR)
Tue 03:03:13 AM -24.2066 119.7731 355° North 359 413 15,600 -2,250 Descending Aus ATC (RADAR)
Tue 03:04:02 AM -24.1350 119.7761 North 372 428 13,900 -2,082 Descending Aus ATC (RADAR)
Tue 03:06:08 AM -23.9502 119.7832 North 2,000 -5,667 Descending Aus ATC (Calculated)
Tue 03:08:00 AM -23.7281 119.7915 North  Level FlightAware Approximate
Tue 03:09:00 AM -23.6090 119.7960 North  Level FlightAware Approximate
Tue 03:09:08 AM -23.6857 119.7931 North 2,000  Level Aus ATC (Calculated)
Tue 03:11:00 AM -23.4635 119.8014 North  Level FlightAware Approximate
Tue 03:12:00 AM -23.4178 119.8028 North  Level Estimated
Tue 03:12:08 AM -23.4848 119.8003 North 1,700  Level Aus ATC (Calculated)
Tue 03:14:00 AM -23.4178 119.8027 355° North  Level FlightAware Approximate
Tue 03:15:00 AM -23.4178 119.8028 355° North  Level Estimated
Tue 03:16:00 AM -23.4178 119.8028 355° North  Level Estimated

Login

Don't have an account? Register now (free) for customized features, flight alerts, and more!